createdAt,value
2018-03-23T00:00:13.413Z,0
2018-03-23T00:00:54.014Z,0
2018-03-23T00:01:34.530Z,0
2018-03-23T00:02:15.221Z,0
2018-03-23T00:02:55.747Z,0
2018-03-23T00:03:36.324Z,0
2018-03-23T00:04:16.942Z,0
2018-03-23T00:04:57.474Z,0
2018-03-23T00:05:38.015Z,0
2018-03-23T00:06:18.725Z,0
2018-03-23T00:06:59.313Z,0
2018-03-23T00:07:39.888Z,0
2018-03-23T00:08:21.247Z,0
2018-03-23T00:09:01.815Z,0
2018-03-23T00:09:42.381Z,0
2018-03-23T00:10:22.945Z,0
2018-03-23T00:11:03.498Z,0
2018-03-23T00:11:44.178Z,0
2018-03-23T00:12:24.877Z,0
2018-03-23T00:13:05.457Z,0
2018-03-23T00:13:46.019Z,0
2018-03-23T00:14:26.569Z,0
2018-03-23T00:15:07.164Z,0
2018-03-23T00:15:47.721Z,0
2018-03-23T00:16:28.276Z,0
2018-03-23T00:17:08.835Z,0
2018-03-23T00:17:49.402Z,0
2018-03-23T00:18:29.999Z,0
2018-03-23T00:19:10.606Z,0
2018-03-23T00:19:51.139Z,0
2018-03-23T00:20:31.672Z,0
2018-03-23T00:21:12.215Z,0
2018-03-23T00:21:52.824Z,0
2018-03-23T00:22:33.381Z,0
2018-03-23T00:23:13.938Z,0
2018-03-23T00:23:54.483Z,0
2018-03-23T00:24:35.059Z,0
2018-03-23T00:25:15.612Z,0
2018-03-23T00:25:56.163Z,0
2018-03-23T00:26:36.713Z,0
2018-03-23T00:27:17.273Z,0
2018-03-23T00:27:57.835Z,0
2018-03-23T00:28:38.390Z,0
2018-03-23T00:29:18.932Z,0
2018-03-23T00:29:59.482Z,0
2018-03-23T00:30:40.040Z,0
2018-03-23T00:31:20.590Z,0
2018-03-23T00:32:01.196Z,0
2018-03-23T00:32:41.716Z,0
2018-03-23T00:33:22.265Z,0
2018-03-23T00:34:02.845Z,0
2018-03-23T00:34:43.428Z,0
2018-03-23T00:35:23.982Z,0
2018-03-23T00:36:04.549Z,0
2018-03-23T00:36:45.112Z,0
2018-03-23T00:37:25.667Z,0
2018-03-23T00:38:06.258Z,0
2018-03-23T00:38:46.783Z,0
2018-03-23T00:39:27.353Z,0
2018-03-23T00:40:07.886Z,0
2018-03-23T00:40:48.440Z,0
2018-03-23T00:41:29.010Z,0
2018-03-23T00:42:09.556Z,0
2018-03-23T00:42:50.124Z,0
2018-03-23T00:43:30.685Z,0
2018-03-23T00:44:11.283Z,0
2018-03-23T00:44:51.844Z,0
2018-03-23T00:45:32.412Z,0
2018-03-23T00:46:12.972Z,0
2018-03-23T00:46:53.535Z,0
2018-03-23T00:47:34.100Z,0
2018-03-23T00:48:14.645Z,0
2018-03-23T00:48:55.203Z,0
2018-03-23T00:49:35.771Z,0
2018-03-23T00:50:16.339Z,0
2018-03-23T00:50:56.899Z,0
2018-03-23T00:51:37.443Z,0
2018-03-23T00:52:17.993Z,0
2018-03-23T00:52:58.544Z,0
2018-03-23T00:53:39.111Z,0
2018-03-23T00:54:19.651Z,0
2018-03-23T00:55:00.204Z,0
2018-03-23T00:55:40.757Z,0
2018-03-23T00:56:21.313Z,0
2018-03-23T00:57:01.883Z,0
2018-03-23T00:57:42.436Z,0
2018-03-23T00:58:23.001Z,0
2018-03-23T00:59:03.550Z,0
2018-03-23T00:59:44.117Z,0
2018-03-23T01:00:24.845Z,0
2018-03-23T01:01:05.457Z,0
2018-03-23T01:01:46.003Z,0
2018-03-23T01:02:26.688Z,0
2018-03-23T01:03:07.250Z,0
2018-03-23T01:03:47.816Z,0
2018-03-23T01:04:28.382Z,0
2018-03-23T01:05:08.933Z,0
2018-03-23T01:05:49.490Z,0
2018-03-23T01:06:30.106Z,0
2018-03-23T01:07:10.607Z,0
2018-03-23T01:07:51.170Z,0
2018-03-23T01:08:31.731Z,0
2018-03-23T01:09:12.299Z,0
2018-03-23T01:09:52.851Z,0
2018-03-23T01:10:33.422Z,0
2018-03-23T01:11:13.984Z,0
2018-03-23T01:11:54.524Z,0
2018-03-23T01:12:35.081Z,0
2018-03-23T01:13:15.648Z,0
2018-03-23T01:13:56.207Z,0
2018-03-23T01:14:36.779Z,0
2018-03-23T01:15:17.335Z,0
2018-03-23T01:15:57.882Z,0
2018-03-23T01:16:38.446Z,0
2018-03-23T01:17:18.998Z,0
2018-03-23T01:17:59.547Z,0
2018-03-23T01:18:40.138Z,0
2018-03-23T01:19:20.716Z,0
2018-03-23T01:20:01.275Z,0
2018-03-23T01:20:41.838Z,0
2018-03-23T01:21:22.437Z,0
2018-03-23T01:22:02.996Z,0
2018-03-23T01:22:43.557Z,0
2018-03-23T01:23:24.116Z,0
2018-03-23T01:24:04.683Z,0
2018-03-23T01:24:45.240Z,0
2018-03-23T01:25:25.808Z,0
2018-03-23T01:26:06.381Z,0
2018-03-23T01:26:46.931Z,0
2018-03-23T01:27:27.566Z,0
2018-03-23T01:28:08.129Z,0
2018-03-23T01:28:48.682Z,0
2018-03-23T01:29:29.264Z,0
2018-03-23T01:30:09.823Z,0
2018-03-23T01:30:50.381Z,0
2018-03-23T01:31:30.935Z,0
2018-03-23T01:32:11.489Z,0
2018-03-23T01:32:52.049Z,0
2018-03-23T01:33:32.594Z,0
2018-03-23T01:34:13.155Z,0
2018-03-23T01:34:53.730Z,0
2018-03-23T01:35:34.286Z,0
2018-03-23T01:36:14.841Z,0
2018-03-23T01:36:55.406Z,0
2018-03-23T01:37:35.953Z,0
2018-03-23T01:38:16.535Z,0
2018-03-23T01:38:57.092Z,0
2018-03-23T01:39:37.636Z,0
2018-03-23T01:40:18.194Z,0
2018-03-23T01:40:58.751Z,0
2018-03-23T01:41:39.310Z,0
2018-03-23T01:42:19.871Z,0
2018-03-23T01:43:00.438Z,0
2018-03-23T01:43:41.006Z,0
2018-03-23T01:44:21.570Z,0
2018-03-23T01:45:02.134Z,0
2018-03-23T01:45:42.695Z,0
2018-03-23T01:46:23.238Z,0
2018-03-23T01:47:03.797Z,0
2018-03-23T01:47:44.340Z,0
2018-03-23T01:48:24.898Z,0
2018-03-23T01:49:05.455Z,0
2018-03-23T01:49:46.025Z,0
2018-03-23T01:50:26.578Z,0
2018-03-23T01:51:07.156Z,0
2018-03-23T01:51:47.697Z,0
2018-03-23T01:52:28.249Z,0
2018-03-23T01:53:08.813Z,0
2018-03-23T01:53:49.369Z,0
2018-03-23T01:54:29.928Z,0
2018-03-23T01:55:10.494Z,0
2018-03-23T01:55:51.059Z,0
2018-03-23T01:56:31.612Z,0
2018-03-23T01:57:12.212Z,0
2018-03-23T01:57:52.732Z,0
2018-03-23T01:58:33.295Z,0
2018-03-23T01:59:13.857Z,0
2018-03-23T01:59:54.424Z,0
2018-03-23T02:00:34.996Z,0
2018-03-23T02:01:15.551Z,0
2018-03-23T02:01:56.110Z,0
2018-03-23T02:02:36.678Z,0
2018-03-23T02:03:17.234Z,0
2018-03-23T02:03:57.796Z,0
2018-03-23T02:04:38.344Z,0
2018-03-23T02:05:18.904Z,0
2018-03-23T02:05:59.465Z,0
2018-03-23T02:06:40.024Z,0
2018-03-23T02:07:20.579Z,0
2018-03-23T02:08:01.136Z,0
2018-03-23T02:08:41.706Z,0
2018-03-23T02:09:22.264Z,0
2018-03-23T02:10:02.827Z,0
2018-03-23T02:10:43.399Z,0
2018-03-23T02:11:23.959Z,0
2018-03-23T02:12:04.489Z,0
2018-03-23T02:12:45.034Z,0
2018-03-23T02:13:25.600Z,0
2018-03-23T02:14:06.144Z,0
2018-03-23T02:14:46.705Z,0
2018-03-23T02:15:27.325Z,0
2018-03-23T02:16:07.842Z,0
2018-03-23T02:16:48.396Z,0
2018-03-23T02:17:28.964Z,0
2018-03-23T02:18:09.522Z,0
2018-03-23T02:18:50.070Z,0
2018-03-23T02:19:30.633Z,0
2018-03-23T02:20:11.202Z,0
2018-03-23T02:20:51.756Z,0
2018-03-23T02:21:32.312Z,0
2018-03-23T02:22:12.852Z,0
2018-03-23T02:22:53.426Z,0
2018-03-23T02:23:33.985Z,0
2018-03-23T02:24:14.538Z,0
2018-03-23T02:24:55.089Z,0
2018-03-23T02:25:35.661Z,0
2018-03-23T02:26:16.212Z,0
2018-03-23T02:26:56.770Z,0
2018-03-23T02:27:37.332Z,0
2018-03-23T02:28:17.892Z,0
2018-03-23T02:28:58.459Z,0
2018-03-23T02:29:39.020Z,0
2018-03-23T02:30:19.570Z,0
2018-03-23T02:31:00.145Z,0
2018-03-23T02:31:40.697Z,0
2018-03-23T02:32:21.269Z,0
2018-03-23T02:33:01.902Z,0
2018-03-23T02:33:42.399Z,0
2018-03-23T02:34:22.951Z,0
2018-03-23T02:35:03.513Z,0
2018-03-23T02:35:44.053Z,0
2018-03-23T02:36:24.603Z,0
2018-03-23T02:37:05.156Z,0
2018-03-23T02:37:45.724Z,0
2018-03-23T02:38:26.282Z,0
2018-03-23T02:39:06.830Z,0
2018-03-23T02:39:47.364Z,0
2018-03-23T02:40:27.932Z,0
2018-03-23T02:41:08.488Z,0
2018-03-23T02:41:49.036Z,0
2018-03-23T02:42:29.593Z,0
2018-03-23T02:43:10.168Z,0
2018-03-23T02:43:50.745Z,0
2018-03-23T02:44:31.291Z,0
2018-03-23T02:45:11.873Z,0
2018-03-23T02:45:52.401Z,0
2018-03-23T02:46:32.947Z,0
2018-03-23T02:47:13.513Z,0
2018-03-23T02:47:54.090Z,0
2018-03-23T02:48:34.711Z,0
2018-03-23T02:49:15.333Z,0
2018-03-23T02:49:55.916Z,0
2018-03-23T02:50:36.471Z,0
2018-03-23T02:51:17.034Z,0
2018-03-23T02:51:57.612Z,0
2018-03-23T02:52:38.135Z,0
2018-03-23T02:53:18.701Z,0
2018-03-23T02:53:59.324Z,0
2018-03-23T02:54:39.873Z,0
2018-03-23T02:55:20.431Z,0
2018-03-23T02:56:00.982Z,0
2018-03-23T02:56:41.563Z,0
2018-03-23T02:57:22.107Z,0
2018-03-23T02:58:02.704Z,0
2018-03-23T02:58:43.261Z,0
2018-03-23T02:59:23.814Z,0
2018-03-23T03:00:04.374Z,0
2018-03-23T03:00:44.964Z,0
2018-03-23T03:01:25.515Z,0
2018-03-23T03:02:06.071Z,0
2018-03-23T03:02:46.631Z,0
2018-03-23T03:03:27.191Z,0
2018-03-23T03:04:07.758Z,0
2018-03-23T03:04:48.306Z,0
2018-03-23T03:05:28.884Z,0
2018-03-23T03:06:09.452Z,0
2018-03-23T03:06:50.021Z,0
2018-03-23T03:07:30.576Z,0
2018-03-23T03:08:11.139Z,0
2018-03-23T03:08:51.896Z,0
2018-03-23T03:09:32.470Z,0
2018-03-23T03:10:13.032Z,0
2018-03-23T03:10:53.599Z,0
2018-03-23T03:11:34.164Z,0
2018-03-23T03:12:14.729Z,0
2018-03-23T03:12:55.292Z,0
2018-03-23T03:13:35.841Z,0
2018-03-23T03:14:16.405Z,0
2018-03-23T03:14:56.959Z,0
2018-03-23T03:15:37.513Z,0
2018-03-23T03:16:18.047Z,0
2018-03-23T03:16:58.604Z,0
2018-03-23T03:17:39.162Z,0
2018-03-23T03:18:19.717Z,0
2018-03-23T03:19:00.275Z,0
2018-03-23T03:19:40.843Z,0
2018-03-23T03:20:21.410Z,0
2018-03-23T03:21:01.972Z,0
2018-03-23T03:21:42.536Z,0
2018-03-23T03:22:23.093Z,0
2018-03-23T03:23:03.651Z,0
2018-03-23T03:23:44.210Z,0
2018-03-23T03:24:24.771Z,0
2018-03-23T03:25:05.324Z,0
2018-03-23T03:25:45.888Z,0
2018-03-23T03:26:26.457Z,0
2018-03-23T03:27:07.028Z,0
2018-03-23T03:27:47.588Z,0
2018-03-23T03:28:28.160Z,0
2018-03-23T03:29:08.717Z,0
2018-03-23T03:29:49.286Z,0
2018-03-23T03:30:29.836Z,0
2018-03-23T03:31:10.404Z,0
2018-03-23T03:31:50.959Z,0
2018-03-23T03:32:31.523Z,0
2018-03-23T03:33:12.083Z,0
2018-03-23T03:33:52.645Z,0
2018-03-23T03:34:33.204Z,0
2018-03-23T03:35:13.766Z,0
2018-03-23T03:35:54.323Z,0
2018-03-23T03:36:34.876Z,0
2018-03-23T03:37:15.437Z,0
2018-03-23T03:37:55.994Z,0
2018-03-23T03:38:36.559Z,0
2018-03-23T03:39:17.122Z,0
2018-03-23T03:39:57.694Z,0
2018-03-23T03:40:38.252Z,0
2018-03-23T03:41:18.813Z,0
2018-03-23T03:41:59.369Z,0
2018-03-23T03:42:39.929Z,0
2018-03-23T03:43:20.471Z,0
2018-03-23T03:44:01.029Z,0
2018-03-23T03:44:41.576Z,0
2018-03-23T03:45:22.128Z,0
2018-03-23T03:46:02.685Z,0
2018-03-23T03:46:43.243Z,0
2018-03-23T03:47:23.804Z,0
2018-03-23T03:48:04.398Z,0
2018-03-23T03:48:44.946Z,0
2018-03-23T03:49:25.535Z,0
2018-03-23T03:50:06.076Z,0
2018-03-23T03:50:46.628Z,0
2018-03-23T03:51:27.196Z,0
2018-03-23T03:52:07.747Z,0
2018-03-23T03:52:48.301Z,0
2018-03-23T03:53:28.862Z,0
2018-03-23T03:54:09.436Z,0
2018-03-23T03:54:50.002Z,0
2018-03-23T03:55:30.548Z,0
2018-03-23T03:56:11.113Z,0
2018-03-23T03:56:51.663Z,0
2018-03-23T03:57:32.225Z,0
2018-03-23T03:58:12.792Z,0
2018-03-23T03:58:53.346Z,0
2018-03-23T03:59:33.903Z,0
2018-03-23T04:00:14.460Z,0
2018-03-23T04:00:55.024Z,0
2018-03-23T04:01:35.576Z,0
2018-03-23T04:02:16.147Z,0
2018-03-23T04:02:56.712Z,0
2018-03-23T04:03:37.270Z,0
2018-03-23T04:04:17.830Z,0
2018-03-23T04:04:58.397Z,0
2018-03-23T04:05:38.955Z,0
2018-03-23T04:06:19.507Z,0
2018-03-23T04:07:00.062Z,0
2018-03-23T04:07:40.622Z,0
2018-03-23T04:08:21.196Z,0
2018-03-23T04:09:01.743Z,0
2018-03-23T04:09:42.299Z,0
2018-03-23T04:10:22.867Z,0
2018-03-23T04:11:03.440Z,0
2018-03-23T04:11:44.004Z,0
2018-03-23T04:12:24.560Z,0
2018-03-23T04:13:05.113Z,0
2018-03-23T04:13:45.692Z,0
2018-03-23T04:14:26.245Z,0
2018-03-23T04:15:06.800Z,0
2018-03-23T04:15:47.346Z,0
2018-03-23T04:16:27.904Z,0
2018-03-23T04:17:08.467Z,0
2018-03-23T04:17:49.036Z,0
2018-03-23T04:18:29.597Z,0
2018-03-23T04:19:10.164Z,0
2018-03-23T04:19:50.728Z,0
2018-03-23T04:20:31.289Z,0
2018-03-23T04:21:11.833Z,0
2018-03-23T04:21:52.400Z,0
2018-03-23T04:22:32.949Z,0
2018-03-23T04:23:13.510Z,0
2018-03-23T04:23:54.057Z,0
2018-03-23T04:24:34.621Z,0
2018-03-23T04:25:15.160Z,0
2018-03-23T04:25:55.729Z,0
2018-03-23T04:26:36.287Z,0
2018-03-23T04:27:16.835Z,0
2018-03-23T04:27:57.382Z,0
2018-03-23T04:28:37.946Z,0
2018-03-23T04:29:18.520Z,0
2018-03-23T04:29:59.081Z,0
2018-03-23T04:30:39.651Z,0
2018-03-23T04:31:20.194Z,0
2018-03-23T04:32:00.777Z,0
2018-03-23T04:32:41.341Z,0
2018-03-23T04:33:21.887Z,0
2018-03-23T04:34:02.449Z,0
2018-03-23T04:34:43.009Z,0
2018-03-23T04:35:23.566Z,0
2018-03-23T04:36:04.131Z,0
2018-03-23T04:36:44.684Z,0
2018-03-23T04:37:25.233Z,0
2018-03-23T04:38:05.784Z,0
2018-03-23T04:38:46.367Z,0
2018-03-23T04:39:26.911Z,0
2018-03-23T04:40:07.463Z,0
2018-03-23T04:40:48.029Z,0
2018-03-23T04:41:28.593Z,0
2018-03-23T04:42:09.135Z,0
2018-03-23T04:42:49.682Z,0
2018-03-23T04:43:30.236Z,0
2018-03-23T04:44:10.796Z,0
2018-03-23T04:44:51.341Z,0
2018-03-23T04:45:31.885Z,0
2018-03-23T04:46:12.460Z,0
2018-03-23T04:46:52.994Z,0
2018-03-23T04:47:33.564Z,0
2018-03-23T04:48:14.128Z,0
2018-03-23T04:48:54.689Z,0
2018-03-23T04:49:35.243Z,0
2018-03-23T04:50:15.821Z,0
2018-03-23T04:50:56.379Z,0
2018-03-23T04:51:36.943Z,0
2018-03-23T04:52:17.494Z,0
2018-03-23T04:52:58.062Z,0
2018-03-23T04:53:38.617Z,0
2018-03-23T04:54:19.179Z,0
2018-03-23T04:54:59.725Z,0
2018-03-23T04:55:40.315Z,0
2018-03-23T04:56:20.888Z,0
2018-03-23T04:57:01.443Z,0
2018-03-23T04:57:41.981Z,0
2018-03-23T04:58:22.536Z,0
2018-03-23T04:59:03.086Z,0
2018-03-23T04:59:43.636Z,0
2018-03-23T05:00:24.192Z,0
2018-03-23T05:01:04.740Z,0
2018-03-23T05:01:45.287Z,0
2018-03-23T05:02:25.845Z,0
2018-03-23T05:03:06.388Z,0
2018-03-23T05:03:46.948Z,0
2018-03-23T05:04:27.513Z,0
2018-03-23T05:05:08.061Z,0
2018-03-23T05:05:48.633Z,0
2018-03-23T05:06:29.201Z,0
2018-03-23T05:07:09.754Z,0
2018-03-23T05:07:50.319Z,0
2018-03-23T05:08:30.879Z,0
2018-03-23T05:09:11.420Z,0
2018-03-23T05:09:51.983Z,0
2018-03-23T05:10:32.549Z,0
2018-03-23T05:11:13.101Z,0
2018-03-23T05:11:53.656Z,0
2018-03-23T05:12:34.196Z,0
2018-03-23T05:13:14.810Z,0
2018-03-23T05:13:55.358Z,0
2018-03-23T05:14:35.913Z,0
2018-03-23T05:15:16.478Z,0
2018-03-23T05:15:57.028Z,0
2018-03-23T05:16:37.587Z,0
2018-03-23T05:17:18.144Z,0
2018-03-23T05:17:58.701Z,0
2018-03-23T05:18:39.258Z,0
2018-03-23T05:19:19.849Z,0
2018-03-23T05:20:00.412Z,0
2018-03-23T05:20:40.987Z,0
2018-03-23T05:21:21.548Z,0
2018-03-23T05:22:02.272Z,0
2018-03-23T05:22:42.846Z,0
2018-03-23T05:23:23.402Z,0
2018-03-23T05:24:03.952Z,0
2018-03-23T05:24:44.561Z,0
2018-03-23T05:25:25.071Z,0
2018-03-23T05:26:05.626Z,0
2018-03-23T05:26:46.175Z,0
2018-03-23T05:27:26.746Z,0
2018-03-23T05:28:07.288Z,0
2018-03-23T05:28:47.857Z,0
2018-03-23T05:29:28.417Z,0
2018-03-23T05:30:08.982Z,0
2018-03-23T05:30:49.556Z,0
2018-03-23T05:31:30.127Z,0
2018-03-23T05:32:10.693Z,0
2018-03-23T05:32:51.240Z,0
2018-03-23T05:33:31.800Z,0
2018-03-23T05:34:12.341Z,0
2018-03-23T05:34:52.880Z,0
2018-03-23T05:35:33.436Z,0
2018-03-23T05:36:13.991Z,0
2018-03-23T05:36:54.537Z,0
2018-03-23T05:37:35.114Z,0
2018-03-23T05:38:15.646Z,0
2018-03-23T05:38:56.196Z,0
2018-03-23T05:39:36.759Z,0
2018-03-23T05:40:17.291Z,0
2018-03-23T05:40:57.859Z,0
2018-03-23T05:41:39.104Z,0
2018-03-23T05:43:52.946Z,0
2018-03-23T05:44:33.503Z,0
2018-03-23T05:45:14.051Z,0
2018-03-23T05:45:54.600Z,0
2018-03-23T05:46:35.160Z,0
2018-03-23T05:47:15.825Z,0
2018-03-23T05:47:56.373Z,0
2018-03-23T05:48:36.925Z,0
2018-03-23T05:49:17.480Z,0
2018-03-23T05:49:58.046Z,0
2018-03-23T05:50:38.575Z,0
2018-03-23T05:51:19.137Z,0
2018-03-23T05:51:59.683Z,0
2018-03-23T05:52:40.234Z,0
2018-03-23T05:53:20.764Z,0
2018-03-23T05:54:01.346Z,0
2018-03-23T05:54:41.875Z,0
2018-03-23T05:55:22.411Z,0
2018-03-23T05:56:03.007Z,0
2018-03-23T05:56:43.587Z,0
2018-03-23T05:57:24.168Z,0
2018-03-23T05:58:04.692Z,0
2018-03-23T05:58:45.253Z,0
2018-03-23T05:59:25.800Z,5
2018-03-23T06:00:06.377Z,5
2018-03-23T06:00:47.146Z,5
2018-03-23T06:01:27.666Z,5
2018-03-23T06:02:08.229Z,5
2018-03-23T06:02:48.787Z,5
2018-03-23T06:03:29.342Z,5
2018-03-23T06:04:09.889Z,5
2018-03-23T06:04:50.435Z,5
2018-03-23T06:05:30.981Z,5
2018-03-23T06:06:11.533Z,5
2018-03-23T06:06:52.091Z,5
2018-03-23T06:07:32.680Z,5
2018-03-23T06:08:13.294Z,5
2018-03-23T06:08:53.847Z,5
2018-03-23T06:09:34.397Z,5
2018-03-23T06:10:14.937Z,5
2018-03-23T06:10:55.509Z,5
2018-03-23T06:11:36.071Z,5
2018-03-23T06:12:16.675Z,5
2018-03-23T06:12:57.244Z,5
2018-03-23T06:13:37.794Z,5
2018-03-23T06:14:18.348Z,5
2018-03-23T06:14:58.907Z,10
2018-03-23T06:15:39.469Z,10
2018-03-23T06:16:20.041Z,10
2018-03-23T06:17:00.602Z,10
2018-03-23T06:17:41.164Z,10
2018-03-23T06:18:21.728Z,10
2018-03-23T06:19:02.290Z,10
2018-03-23T06:19:42.834Z,10
2018-03-23T06:20:23.472Z,10
2018-03-23T06:21:04.030Z,10
2018-03-23T06:21:44.589Z,10
2018-03-23T06:22:25.164Z,10
2018-03-23T06:23:05.701Z,10
2018-03-23T06:23:46.253Z,10
2018-03-23T06:24:26.808Z,10
2018-03-23T06:25:07.348Z,10
2018-03-23T06:25:47.892Z,10
2018-03-23T06:26:28.469Z,10
2018-03-23T06:27:09.005Z,10
2018-03-23T06:27:49.568Z,10
2018-03-23T06:28:30.117Z,10
2018-03-23T06:29:10.664Z,10
2018-03-23T06:29:51.210Z,10
2018-03-23T06:30:31.761Z,10
2018-03-23T06:31:12.302Z,10
2018-03-23T06:31:52.862Z,10
2018-03-23T06:32:33.431Z,10
2018-03-23T06:33:13.960Z,10
2018-03-23T06:33:54.513Z,10
2018-03-23T06:34:35.059Z,10
2018-03-23T06:35:15.612Z,10
2018-03-23T06:35:56.157Z,10
2018-03-23T06:36:36.725Z,10
2018-03-23T06:37:17.242Z,10
2018-03-23T06:37:58.225Z,10
2018-03-23T06:38:38.784Z,10
2018-03-23T06:39:19.326Z,10
2018-03-23T06:40:00.037Z,10
2018-03-23T06:40:40.685Z,15
2018-03-23T06:41:21.287Z,15
2018-03-23T06:42:01.828Z,15
2018-03-23T06:42:42.372Z,15
2018-03-23T06:43:22.945Z,15
2018-03-23T06:44:03.547Z,15
2018-03-23T06:44:44.105Z,15
2018-03-23T06:45:24.672Z,15
2018-03-23T06:46:05.222Z,15
2018-03-23T06:46:45.834Z,15
2018-03-23T06:47:26.394Z,15
2018-03-23T06:48:06.957Z,15
2018-03-23T06:48:47.554Z,15
2018-03-23T06:49:28.084Z,15
2018-03-23T06:50:08.649Z,15
2018-03-23T06:50:49.196Z,15
2018-03-23T06:51:29.743Z,20
2018-03-23T06:52:10.296Z,20
2018-03-23T06:52:50.864Z,20
2018-03-23T06:53:31.432Z,20
2018-03-23T06:54:11.991Z,20
2018-03-23T06:54:52.557Z,20
2018-03-23T06:55:33.126Z,20
2018-03-23T06:56:13.662Z,20
2018-03-23T06:56:54.236Z,20
2018-03-23T06:57:34.825Z,20
2018-03-23T06:58:15.378Z,20
2018-03-23T06:58:55.955Z,25
2018-03-23T06:59:36.523Z,25
2018-03-23T07:00:17.122Z,25
2018-03-23T07:00:57.670Z,20
2018-03-23T07:01:38.272Z,20
2018-03-23T07:02:18.849Z,20
2018-03-23T07:02:59.368Z,20
2018-03-23T07:03:39.941Z,20
2018-03-23T07:04:20.669Z,20
2018-03-23T07:05:01.224Z,20
2018-03-23T07:05:41.807Z,25
2018-03-23T07:06:22.370Z,25
2018-03-23T07:07:02.943Z,30
2018-03-23T07:07:43.486Z,30
2018-03-23T07:08:24.140Z,30
2018-03-23T07:09:04.686Z,30
2018-03-23T07:09:45.226Z,30
2018-03-23T07:10:25.775Z,30
2018-03-23T07:11:06.346Z,30
2018-03-23T07:11:46.955Z,35
2018-03-23T07:12:27.526Z,35
2018-03-23T07:13:08.081Z,35
2018-03-23T07:13:48.633Z,35
2018-03-23T07:14:29.166Z,35
2018-03-23T07:15:09.736Z,35
2018-03-23T07:15:50.389Z,35
2018-03-23T07:16:30.981Z,30
2018-03-23T07:17:11.530Z,30
2018-03-23T07:17:52.086Z,30
2018-03-23T07:18:32.642Z,30
2018-03-23T07:19:13.204Z,30
2018-03-23T07:19:53.747Z,30
2018-03-23T07:20:34.310Z,30
2018-03-23T07:21:15.091Z,25
2018-03-23T07:21:55.655Z,30
2018-03-23T07:22:36.201Z,30
2018-03-23T07:23:16.789Z,25
2018-03-23T07:23:57.347Z,25
2018-03-23T07:24:37.908Z,25
2018-03-23T07:25:18.461Z,25
2018-03-23T07:25:59.012Z,30
2018-03-23T07:26:39.834Z,30
2018-03-23T07:27:20.388Z,30
2018-03-23T07:28:01.156Z,30
2018-03-23T07:28:41.684Z,30
2018-03-23T07:29:22.245Z,35
2018-03-23T07:30:02.791Z,35
2018-03-23T07:30:43.344Z,35
2018-03-23T07:31:23.896Z,35
2018-03-23T07:32:04.459Z,35
2018-03-23T07:32:45.012Z,40
2018-03-23T07:33:25.565Z,40
2018-03-23T07:34:06.174Z,40
2018-03-23T07:34:46.767Z,40
2018-03-23T07:35:27.321Z,40
2018-03-23T07:36:07.886Z,45
2018-03-23T07:36:48.420Z,45
2018-03-23T07:37:29.008Z,45
2018-03-23T07:38:09.574Z,45
2018-03-23T07:38:50.118Z,45
2018-03-23T07:39:30.677Z,50
2018-03-23T07:40:11.325Z,50
2018-03-23T07:40:51.873Z,50
2018-03-23T07:41:32.425Z,50
2018-03-23T07:42:12.989Z,50
2018-03-23T07:42:53.538Z,50
2018-03-23T07:43:34.122Z,50
2018-03-23T07:44:15.551Z,55
2018-03-23T07:44:56.113Z,55
2018-03-23T07:45:36.675Z,55
2018-03-23T07:46:17.246Z,55
2018-03-23T07:46:57.805Z,55
2018-03-23T07:47:38.353Z,50
2018-03-23T07:48:18.929Z,55
2018-03-23T07:48:59.610Z,55
2018-03-23T07:49:40.166Z,60
2018-03-23T07:50:20.723Z,60
2018-03-23T07:51:01.276Z,60
2018-03-23T07:51:41.828Z,60
2018-03-23T07:52:22.390Z,60
2018-03-23T07:53:04.123Z,60
2018-03-23T07:53:44.757Z,60
2018-03-23T07:54:25.255Z,60
2018-03-23T07:55:05.812Z,60
2018-03-23T07:55:46.380Z,60
2018-03-23T07:56:26.942Z,60
2018-03-23T07:57:07.490Z,55
2018-03-23T07:57:48.087Z,55
2018-03-23T07:58:28.638Z,55
2018-03-23T07:59:09.206Z,55
2018-03-23T07:59:49.776Z,55
2018-03-23T08:00:30.298Z,55
2018-03-23T08:01:10.867Z,60
2018-03-23T08:01:51.416Z,60
2018-03-23T08:02:31.986Z,60
2018-03-23T08:03:12.538Z,60
2018-03-23T08:03:53.097Z,60
2018-03-23T08:04:33.671Z,60
2018-03-23T08:05:14.237Z,60
2018-03-23T08:05:54.794Z,60
2018-03-23T08:06:35.339Z,60
2018-03-23T08:07:15.906Z,60
2018-03-23T08:07:56.450Z,60
2018-03-23T08:08:37.024Z,60
2018-03-23T08:09:17.573Z,60
2018-03-23T08:09:58.134Z,60
2018-03-23T08:10:38.688Z,60
2018-03-23T08:11:19.377Z,55
2018-03-23T08:11:59.931Z,55
2018-03-23T08:12:40.480Z,50
2018-03-23T08:13:21.235Z,50
2018-03-23T08:14:01.654Z,50
2018-03-23T08:14:42.202Z,50
2018-03-23T08:15:22.803Z,50
2018-03-23T08:16:05.411Z,50
2018-03-23T08:16:45.417Z,50
2018-03-23T08:17:26.015Z,45
2018-03-23T08:18:06.621Z,45
2018-03-23T08:18:47.181Z,45
2018-03-23T08:19:27.731Z,45
2018-03-23T08:20:08.522Z,45
2018-03-23T08:20:49.098Z,40
2018-03-23T08:21:29.755Z,40
2018-03-23T08:22:10.346Z,40
2018-03-23T08:22:50.910Z,40
2018-03-23T08:23:31.532Z,35
2018-03-23T08:24:12.085Z,35
2018-03-23T08:24:53.423Z,35
2018-03-23T08:25:34.051Z,35
2018-03-23T08:26:14.630Z,30
2018-03-23T08:26:55.224Z,30
2018-03-23T08:27:36.891Z,30
2018-03-23T08:28:17.603Z,30
2018-03-23T08:28:58.229Z,30
2018-03-23T08:29:38.780Z,30
2018-03-23T08:30:19.386Z,30
2018-03-23T08:30:59.946Z,30
2018-03-23T08:31:40.514Z,30
2018-03-23T08:32:21.076Z,30
2018-03-23T08:33:01.631Z,30
2018-03-23T08:33:42.206Z,30
2018-03-23T08:34:23.572Z,30
2018-03-23T08:35:04.124Z,30
2018-03-23T08:35:44.692Z,30
2018-03-23T08:36:26.192Z,35
2018-03-23T08:37:06.754Z,35
2018-03-23T08:37:47.318Z,35
2018-03-23T08:38:27.880Z,35
2018-03-23T08:39:08.507Z,35
2018-03-23T08:39:49.079Z,35
2018-03-23T08:40:29.686Z,35
2018-03-23T08:41:10.237Z,35
2018-03-23T08:41:50.787Z,35
2018-03-23T08:42:31.405Z,35
2018-03-23T08:43:11.966Z,35
2018-03-23T08:43:52.566Z,35
2018-03-23T08:44:33.123Z,35
2018-03-23T08:45:13.693Z,35
2018-03-23T08:45:54.257Z,35
2018-03-23T08:46:34.916Z,35
2018-03-23T08:47:15.477Z,40
2018-03-23T08:47:56.029Z,40
2018-03-23T08:48:36.627Z,40
2018-03-23T08:49:17.181Z,40
2018-03-23T08:49:57.738Z,40
2018-03-23T08:50:38.279Z,40
2018-03-23T08:51:18.844Z,40
2018-03-23T08:51:59.406Z,40
2018-03-23T08:52:39.972Z,40
2018-03-23T08:53:20.515Z,40
2018-03-23T08:54:01.112Z,40
2018-03-23T08:54:41.676Z,45
2018-03-23T08:55:22.621Z,45
2018-03-23T08:56:03.453Z,45
2018-03-23T08:56:44.038Z,45
2018-03-23T08:57:24.599Z,45
2018-03-23T08:58:05.216Z,45
2018-03-23T08:58:45.767Z,45
2018-03-23T08:59:26.328Z,45
2018-03-23T09:00:06.890Z,40
2018-03-23T09:00:47.437Z,40
2018-03-23T09:01:27.997Z,40
2018-03-23T09:02:08.577Z,40
2018-03-23T09:02:49.122Z,40
2018-03-23T09:03:29.665Z,40
2018-03-23T09:04:10.215Z,40
2018-03-23T09:04:50.799Z,40
2018-03-23T09:05:31.386Z,40
2018-03-23T09:06:12.111Z,45
2018-03-23T09:06:52.680Z,45
2018-03-23T09:07:33.223Z,45
2018-03-23T09:08:13.780Z,45
2018-03-23T09:08:54.343Z,45
2018-03-23T09:09:35.063Z,45
2018-03-23T09:10:15.622Z,45
2018-03-23T09:10:56.187Z,45
2018-03-23T09:11:36.746Z,45
2018-03-23T09:12:17.599Z,45
2018-03-23T09:12:58.304Z,45
2018-03-23T09:13:38.896Z,45
2018-03-23T09:14:19.458Z,45
2018-03-23T09:15:00.030Z,45
2018-03-23T09:15:40.677Z,45
2018-03-23T09:16:21.294Z,45
2018-03-23T09:17:01.917Z,45
2018-03-23T09:17:42.463Z,45
2018-03-23T09:18:23.023Z,45
2018-03-23T09:19:04.692Z,45
2018-03-23T09:19:44.513Z,45
2018-03-23T09:20:25.063Z,45
2018-03-23T09:21:05.639Z,45
2018-03-23T09:21:46.245Z,45
2018-03-23T09:22:26.752Z,45
2018-03-23T09:23:07.334Z,45
2018-03-23T09:23:47.951Z,50
2018-03-23T09:24:28.516Z,50
2018-03-23T09:25:09.081Z,50
2018-03-23T09:25:49.840Z,50
2018-03-23T09:26:30.397Z,50
2018-03-23T09:27:10.955Z,50
2018-03-23T09:27:51.515Z,50
2018-03-23T09:28:32.073Z,50
2018-03-23T09:29:12.632Z,50
2018-03-23T09:29:53.195Z,50
2018-03-23T09:30:33.793Z,50
2018-03-23T09:31:14.400Z,50
2018-03-23T09:31:54.912Z,45
2018-03-23T09:32:35.473Z,45
2018-03-23T09:33:16.178Z,45
2018-03-23T09:33:56.737Z,45
2018-03-23T09:34:37.302Z,45
2018-03-23T09:35:17.857Z,45
2018-03-23T09:35:58.483Z,45
2018-03-23T09:36:39.053Z,45
2018-03-23T09:37:19.664Z,45
2018-03-23T09:38:00.187Z,45
2018-03-23T09:38:40.737Z,45
2018-03-23T09:39:21.301Z,45
2018-03-23T09:40:01.850Z,45
2018-03-23T09:40:42.405Z,45
2018-03-23T09:41:22.978Z,45
2018-03-23T09:42:03.533Z,45
2018-03-23T09:42:44.094Z,45
2018-03-23T09:43:24.656Z,45
2018-03-23T09:44:05.285Z,45
2018-03-23T09:44:45.770Z,45
2018-03-23T09:45:26.466Z,45
2018-03-23T09:46:07.030Z,45
2018-03-23T09:46:47.590Z,45
2018-03-23T09:47:28.134Z,45
2018-03-23T09:48:08.736Z,45
2018-03-23T09:48:49.290Z,45
2018-03-23T09:49:29.843Z,45
2018-03-23T09:50:10.400Z,45
2018-03-23T09:50:50.956Z,45
2018-03-23T09:51:31.511Z,50
2018-03-23T09:52:12.073Z,50
2018-03-23T09:52:52.636Z,50
2018-03-23T09:53:33.198Z,50